createdAt,value
2022-09-18T00:01:31.377Z,4.03
2022-09-18T00:04:02.088Z,4.15
2022-09-18T00:06:32.276Z,4.63
2022-09-18T00:09:01.998Z,4.43
2022-09-18T00:11:34.186Z,4.03
2022-09-18T00:14:01.791Z,4.50
2022-09-18T00:16:29.247Z,4.18
2022-09-18T00:18:56.789Z,4.80
2022-09-18T00:21:25.203Z,4.68
2022-09-18T00:23:58.325Z,5.40
2022-09-18T00:26:26.147Z,4.35
2022-09-18T00:28:54.805Z,4.65
2022-09-18T00:31:29.858Z,4.80
2022-09-18T00:34:00.367Z,5.18
2022-09-18T00:36:28.213Z,4.63
2022-09-18T00:38:57.522Z,4.90
2022-09-18T00:41:34.674Z,5.00
2022-09-18T00:44:41.141Z,4.88
2022-09-18T00:47:11.570Z,4.95
2022-09-18T00:49:59.144Z,5.60
2022-09-18T00:52:36.840Z,5.35
2022-09-18T00:55:11.571Z,5.80
2022-09-18T00:57:45.736Z,5.35
2022-09-18T01:00:14.594Z,5.57
2022-09-18T01:02:45.528Z,5.90
2022-09-18T01:05:15.905Z,5.55
2022-09-18T01:07:58.176Z,6.85
2022-09-18T01:10:37.458Z,5.68
2022-09-18T01:13:25.017Z,5.50
2022-09-18T01:16:15.328Z,6.60
2022-09-18T01:18:48.915Z,6.55
2022-09-18T01:21:20.017Z,6.43
2022-09-18T01:24:06.725Z,6.35
2022-09-18T01:26:55.323Z,6.03
2022-09-18T01:29:48.443Z,5.90
2022-09-18T01:32:25.789Z,6.78
2022-09-18T01:35:09.606Z,6.10
2022-09-18T01:38:19.454Z,6.35
2022-09-18T01:41:05.751Z,7.50
2022-09-18T01:43:35.894Z,6.07
2022-09-18T01:46:11.268Z,5.75
2022-09-18T01:48:45.151Z,6.35
2022-09-18T01:51:20.627Z,6.30
2022-09-18T01:53:54.958Z,6.60
2022-09-18T01:56:46.249Z,6.50
2022-09-18T01:59:24.566Z,6.95
2022-09-18T02:02:01.952Z,6.78
2022-09-18T02:04:34.921Z,6.97
2022-09-18T02:07:08.655Z,6.90
2022-09-18T02:09:36.267Z,7.38
2022-09-18T02:12:06.213Z,7.28
2022-09-18T02:17:51.094Z,7.38
2022-09-18T02:20:26.763Z,7.30
2022-09-18T02:23:02.137Z,7.75
2022-09-18T02:25:52.250Z,7.03
2022-09-18T02:28:22.872Z,6.82
2022-09-18T02:30:50.416Z,7.68
2022-09-18T02:33:25.866Z,6.55
2022-09-18T02:36:29.313Z,6.65
2022-09-18T02:41:57.880Z,5.63
2022-09-18T02:44:59.110Z,5.28
2022-09-18T02:47:56.287Z,5.72
2022-09-18T02:50:39.598Z,6.22
2022-09-18T02:53:25.265Z,6.43
2022-09-18T02:56:02.671Z,6.82
2022-09-18T02:58:47.936Z,7.05
2022-09-18T03:01:18.323Z,6.65
2022-09-18T03:03:46.771Z,7.28
2022-09-18T03:06:19.293Z,6.60
2022-09-18T03:08:47.045Z,7.32
2022-09-18T03:11:14.796Z,7.00
2022-09-18T03:13:44.506Z,6.18
2022-09-18T03:16:11.972Z,7.22
2022-09-18T03:18:39.392Z,6.95
2022-09-18T03:21:07.181Z,7.18
2022-09-18T03:23:34.643Z,6.68
2022-09-18T03:26:13.370Z,7.97
2022-09-18T03:28:40.844Z,7.60
2022-09-18T03:31:08.855Z,6.47
2022-09-18T03:33:36.753Z,7.28
2022-09-18T03:36:05.922Z,6.95
2022-09-18T03:38:34.176Z,7.35
2022-09-18T03:41:01.700Z,7.10
2022-09-18T03:43:29.103Z,7.38
2022-09-18T03:45:56.525Z,7.10
2022-09-18T03:48:23.917Z,7.30
2022-09-18T03:50:51.761Z,6.60
2022-09-18T03:53:20.697Z,7.32
2022-09-18T03:55:56.447Z,7.70
2022-09-18T03:58:44.197Z,7.68
2022-09-18T04:01:32.029Z,7.65
2022-09-18T04:04:17.989Z,7.38
2022-09-18T04:07:05.351Z,6.30
2022-09-18T04:09:58.914Z,6.80
2022-09-18T04:12:26.571Z,7.03
2022-09-18T04:15:17.325Z,6.30
2022-09-18T04:17:45.398Z,6.88
2022-09-18T04:20:12.810Z,6.95
2022-09-18T04:22:42.229Z,8.70
2022-09-18T04:25:10.327Z,6.97
2022-09-18T04:27:38.645Z,6.32
2022-09-18T04:30:06.512Z,6.75
2022-09-18T04:32:35.535Z,7.68
2022-09-18T04:35:03.489Z,8.25
2022-09-18T04:37:31.443Z,11.20
2022-09-18T04:40:03.939Z,16.65
2022-09-18T04:42:32.241Z,16.55
2022-09-18T04:45:01.143Z,16.40
2022-09-18T04:47:28.684Z,11.77
2022-09-18T04:49:56.162Z,10.45
2022-09-18T04:52:27.055Z,8.57
2022-09-18T04:54:54.728Z,8.13
2022-09-18T04:57:22.121Z,10.95
2022-09-18T04:59:49.521Z,11.52
2022-09-18T05:02:19.128Z,11.63
2022-09-18T05:04:46.661Z,10.93
2022-09-18T05:07:24.121Z,10.23
2022-09-18T05:09:51.704Z,10.38
2022-09-18T05:12:19.129Z,9.70
2022-09-18T05:14:46.495Z,8.75
2022-09-18T05:17:17.166Z,8.25
2022-09-18T05:20:05.700Z,8.20
2022-09-18T05:22:38.765Z,8.45
2022-09-18T05:25:10.489Z,7.05
2022-09-18T05:27:37.944Z,6.25
2022-09-18T05:30:09.844Z,6.85
2022-09-18T05:33:01.568Z,5.78
2022-09-18T05:38:00.764Z,5.80
2022-09-18T05:40:36.842Z,7.18
2022-09-18T05:43:04.938Z,5.80
2022-09-18T05:45:35.057Z,5.20
2022-09-18T05:48:07.790Z,4.57
2022-09-18T05:50:38.793Z,4.55
2022-09-18T05:53:08.543Z,4.50
2022-09-18T05:55:44.236Z,4.75
2022-09-18T05:58:14.262Z,4.18
2022-09-18T06:00:42.194Z,5.32
2022-09-18T06:03:15.482Z,6.75
2022-09-18T06:05:43.586Z,6.85
2022-09-18T06:08:13.824Z,5.15
2022-09-18T06:10:41.586Z,5.60
2022-09-18T06:13:15.658Z,5.78
2022-09-18T06:15:48.223Z,4.90
2022-09-18T06:18:18.423Z,5.10
2022-09-18T06:20:56.234Z,3.63
2022-09-18T06:23:27.398Z,4.38
2022-09-18T06:26:06.092Z,3.70
2022-09-18T06:28:35.615Z,3.50
2022-09-18T06:31:06.080Z,3.65
2022-09-18T06:33:49.374Z,3.40
2022-09-18T06:36:16.811Z,4.05
2022-09-18T06:39:04.472Z,3.60
2022-09-18T06:41:33.027Z,3.05
2022-09-18T06:44:04.456Z,2.40
2022-09-18T06:46:43.424Z,3.17
2022-09-18T06:49:17.613Z,2.85
2022-09-18T06:51:48.568Z,2.70
2022-09-18T06:54:17.102Z,2.38
2022-09-18T06:56:46.230Z,2.85
2022-09-18T06:59:15.283Z,2.65
2022-09-18T07:01:42.801Z,2.40
2022-09-18T07:04:18.510Z,2.90
2022-09-18T07:06:46.966Z,2.63
2022-09-18T07:09:15.422Z,2.63
2022-09-18T07:11:54.930Z,2.20
2022-09-18T07:14:32.038Z,2.80
2022-09-18T07:17:14.114Z,2.50
2022-09-18T07:19:44.708Z,3.20
2022-09-18T07:22:13.003Z,3.08
2022-09-18T07:24:44.442Z,4.50
2022-09-18T07:27:11.885Z,4.47
2022-09-18T07:29:42.000Z,4.72
2022-09-18T07:32:13.942Z,4.63
2022-09-18T07:34:44.135Z,4.70
2022-09-18T07:37:14.352Z,4.90
2022-09-18T07:42:32.315Z,4.50
2022-09-18T07:45:01.323Z,4.28
2022-09-18T07:47:29.972Z,4.50
2022-09-18T07:50:00.782Z,5.18
2022-09-18T07:52:28.499Z,3.90
2022-09-18T07:54:57.188Z,4.22
2022-09-18T07:57:30.012Z,4.55
2022-09-18T08:00:17.188Z,3.55
2022-09-18T08:02:44.996Z,4.70
2022-09-18T08:05:22.296Z,3.75
2022-09-18T08:08:07.417Z,4.00
2022-09-18T08:10:52.573Z,3.70
2022-09-18T08:13:38.023Z,2.85
2022-09-18T08:16:37.642Z,3.47
2022-09-18T08:19:11.056Z,3.03
2022-09-18T08:21:48.110Z,3.65
2022-09-18T08:24:17.584Z,3.28
2022-09-18T08:26:46.555Z,3.40
2022-09-18T08:29:20.460Z,3.55
2022-09-18T08:31:59.201Z,3.28
2022-09-18T08:34:27.226Z,3.13
2022-09-18T08:36:55.573Z,2.97
2022-09-18T08:39:42.901Z,3.90
2022-09-18T08:42:47.816Z,3.83
2022-09-18T08:45:51.542Z,4.20
2022-09-18T08:48:27.930Z,3.83
2022-09-18T08:51:06.780Z,3.40
2022-09-18T08:53:43.369Z,3.78
2022-09-18T08:56:34.952Z,3.50
2022-09-18T08:59:47.901Z,3.90
2022-09-18T09:02:27.600Z,3.47
2022-09-18T09:05:00.041Z,9.35
2022-09-18T09:07:39.471Z,4.68
2022-09-18T09:10:22.651Z,3.42
2022-09-18T09:13:20.738Z,3.30
2022-09-18T09:16:04.612Z,3.13
2022-09-18T09:19:01.526Z,3.60
2022-09-18T09:21:41.883Z,3.90
2022-09-18T09:24:21.020Z,3.30
2022-09-18T09:27:29.175Z,2.92
2022-09-18T09:30:35.133Z,3.28
2022-09-18T09:33:27.908Z,2.75
2022-09-18T09:36:08.270Z,3.25
2022-09-18T09:39:13.264Z,3.30
2022-09-18T09:41:46.827Z,2.83
2022-09-18T09:44:21.026Z,3.25
2022-09-18T09:47:04.111Z,3.53
2022-09-18T09:49:43.477Z,3.08
2022-09-18T09:52:24.542Z,3.35
2022-09-18T09:55:21.308Z,3.15
2022-09-18T09:58:21.543Z,3.72
2022-09-18T10:01:06.504Z,3.00
2022-09-18T10:03:57.660Z,3.15
2022-09-18T10:06:35.667Z,3.10
2022-09-18T10:09:30.216Z,3.13
2022-09-18T10:12:24.759Z,3.35
2022-09-18T10:15:01.811Z,3.15
2022-09-18T10:17:36.823Z,5.50
2022-09-18T10:20:06.273Z,3.78
2022-09-18T10:22:35.426Z,3.30
2022-09-18T10:25:15.087Z,3.28
2022-09-18T10:27:42.523Z,3.67
2022-09-18T10:30:14.280Z,3.17
2022-09-18T10:32:52.957Z,3.95
2022-09-18T10:35:44.948Z,3.20
2022-09-18T10:38:30.039Z,3.67
2022-09-18T10:41:25.326Z,3.20
2022-09-18T10:44:03.681Z,2.80
2022-09-18T10:46:34.573Z,2.72
2022-09-18T10:49:22.917Z,3.10
2022-09-18T10:52:30.000Z,2.60
2022-09-18T10:55:07.342Z,3.55
2022-09-18T10:57:36.111Z,4.32
2022-09-18T11:00:12.158Z,3.08
2022-09-18T11:02:44.751Z,2.60
2022-09-18T11:07:52.162Z,4.32
2022-09-18T11:10:25.426Z,2.65
2022-09-18T11:13:01.384Z,2.60
2022-09-18T11:15:38.852Z,2.60
2022-09-18T11:18:13.757Z,2.65
2022-09-18T11:20:44.650Z,2.70
2022-09-18T11:23:32.574Z,3.72
2022-09-18T11:26:19.451Z,2.70
2022-09-18T11:29:16.245Z,5.45
2022-09-18T11:32:15.456Z,3.05
2022-09-18T11:34:51.323Z,2.85
2022-09-18T11:37:31.067Z,2.40
2022-09-18T11:40:04.310Z,2.42
2022-09-18T11:42:32.656Z,4.45
2022-09-18T11:45:24.864Z,3.38
2022-09-18T11:48:07.612Z,5.07
2022-09-18T11:50:37.413Z,2.80
2022-09-18T11:53:37.122Z,2.80
2022-09-18T11:56:15.931Z,1.83
2022-09-18T11:58:56.268Z,2.03
2022-09-18T12:01:42.270Z,2.30
2022-09-18T12:04:26.677Z,2.10
2022-09-18T12:07:06.067Z,2.10
2022-09-18T12:09:57.165Z,2.70
2022-09-18T12:12:33.131Z,2.20
2022-09-18T12:15:13.036Z,2.63
2022-09-18T12:18:19.009Z,2.33
2022-09-18T12:20:52.292Z,2.55
2022-09-18T12:23:25.038Z,1.88
2022-09-18T12:25:54.271Z,2.10
2022-09-18T12:28:33.574Z,2.72
2022-09-18T12:32:08.773Z,2.40
2022-09-18T12:35:05.513Z,4.53
2022-09-18T12:37:54.902Z,4.70
2022-09-18T12:40:41.007Z,2.80
2022-09-18T12:43:29.126Z,3.25
2022-09-18T12:46:26.134Z,2.58
2022-09-18T12:49:40.619Z,3.45
2022-09-18T12:52:27.752Z,2.58
2022-09-18T12:55:18.727Z,2.40
2022-09-18T12:58:03.426Z,2.78
2022-09-18T13:00:30.948Z,2.33
2022-09-18T13:03:30.780Z,2.42
2022-09-18T13:06:09.350Z,2.95
2022-09-18T13:08:53.075Z,2.53
2022-09-18T13:11:37.934Z,2.88
2022-09-18T13:14:28.995Z,2.42
2022-09-18T13:17:19.310Z,2.63
2022-09-18T13:19:53.060Z,3.05
2022-09-18T13:22:22.786Z,2.90
2022-09-18T13:24:53.217Z,2.97
2022-09-18T13:27:24.077Z,3.10
2022-09-18T13:29:51.421Z,3.00
2022-09-18T13:32:22.234Z,3.08
2022-09-18T13:35:09.291Z,2.75
2022-09-18T13:37:36.853Z,2.65
2022-09-18T13:40:10.464Z,2.28
2022-09-18T13:42:42.619Z,2.30
2022-09-18T13:45:20.489Z,1.80
2022-09-18T13:48:04.836Z,2.20
2022-09-18T13:50:36.597Z,1.85
2022-09-18T13:53:05.188Z,1.50
2022-09-18T13:55:38.043Z,1.20
2022-09-18T13:58:35.221Z,1.80
2022-09-18T14:01:09.204Z,2.00
2022-09-18T14:03:38.228Z,1.38
2022-09-18T14:06:50.571Z,1.58
2022-09-18T14:09:44.664Z,1.30
2022-09-18T14:12:16.732Z,1.20
2022-09-18T14:14:55.805Z,1.65
2022-09-18T14:17:25.357Z,1.50
2022-09-18T14:20:09.510Z,1.20
2022-09-18T14:22:40.371Z,1.40
2022-09-18T14:25:12.039Z,1.50
2022-09-18T14:27:57.246Z,1.35
2022-09-18T14:30:27.137Z,1.50
2022-09-18T14:33:00.619Z,1.30
2022-09-18T14:35:36.692Z,1.38
2022-09-18T14:38:36.138Z,1.83
2022-09-18T14:41:25.013Z,3.45
2022-09-18T14:43:58.884Z,3.03
2022-09-18T14:46:28.030Z,1.15
2022-09-18T14:48:56.001Z,1.55
2022-09-18T14:51:28.884Z,1.30
2022-09-18T14:53:58.431Z,1.08
2022-09-18T14:56:32.306Z,1.02
2022-09-18T14:59:04.462Z,1.20
2022-09-18T15:01:34.954Z,0.95
2022-09-18T15:04:04.920Z,0.95
2022-09-18T15:06:39.597Z,1.13
2022-09-18T15:09:10.102Z,0.80
2022-09-18T15:12:01.410Z,0.70
2022-09-18T15:14:42.675Z,6.50
2022-09-18T15:17:24.444Z,2.60
2022-09-18T15:20:09.806Z,1.20
2022-09-18T15:22:37.241Z,1.20
2022-09-18T15:25:14.288Z,0.95
2022-09-18T15:27:42.941Z,0.80
2022-09-18T15:30:21.839Z,0.98
2022-09-18T15:33:04.403Z,0.80
2022-09-18T15:35:36.050Z,1.02
2022-09-18T15:38:07.485Z,0.88
2022-09-18T15:40:39.018Z,0.93
2022-09-18T15:43:32.092Z,0.82
2022-09-18T15:46:04.163Z,0.93
2022-09-18T15:48:37.420Z,0.90
2022-09-18T15:51:25.602Z,0.90
2022-09-18T15:54:09.165Z,1.50
2022-09-18T15:56:48.061Z,1.20
2022-09-18T15:59:26.293Z,0.90
2022-09-18T16:01:53.965Z,1.30
2022-09-18T16:04:29.703Z,1.05
2022-09-18T16:07:18.843Z,1.27
2022-09-18T16:09:48.793Z,1.08
2022-09-18T16:12:24.993Z,1.27
2022-09-18T16:15:10.970Z,1.30
2022-09-18T16:17:51.473Z,1.05
2022-09-18T16:20:30.075Z,1.45
2022-09-18T16:23:05.294Z,2.47
2022-09-18T16:25:36.115Z,0.65
2022-09-18T16:28:13.738Z,1.10
2022-09-18T16:30:41.086Z,1.13
2022-09-18T16:33:20.936Z,1.60
2022-09-18T16:36:00.478Z,0.82
2022-09-18T16:38:28.216Z,1.73
2022-09-18T16:40:55.618Z,1.33
2022-09-18T16:43:23.298Z,1.63
2022-09-18T16:45:50.757Z,1.40
2022-09-18T16:48:19.127Z,1.80
2022-09-18T16:50:47.886Z,1.80
2022-09-18T16:53:15.798Z,3.67
2022-09-18T16:55:48.667Z,2.15
2022-09-18T16:58:17.900Z,1.85
2022-09-18T17:00:45.540Z,1.38
2022-09-18T17:03:13.370Z,1.10
2022-09-18T17:05:41.546Z,1.58
2022-09-18T17:08:09.015Z,1.23
2022-09-18T17:10:36.697Z,1.38
2022-09-18T17:13:04.376Z,1.50
2022-09-18T17:15:31.798Z,1.20
2022-09-18T17:17:59.166Z,4.30
2022-09-18T17:20:26.570Z,2.15
2022-09-18T17:22:53.998Z,2.47
2022-09-18T17:25:21.405Z,2.45
2022-09-18T17:27:50.915Z,1.77
2022-09-18T17:30:19.662Z,1.30
2022-09-18T17:32:48.437Z,1.65
2022-09-18T17:35:17.025Z,2.75
2022-09-18T17:37:44.608Z,3.88
2022-09-18T17:40:12.315Z,5.07
2022-09-18T17:42:40.065Z,2.80
2022-09-18T17:45:11.002Z,4.20
2022-09-18T17:47:38.382Z,4.22
2022-09-18T17:50:06.333Z,3.78
2022-09-18T17:52:34.940Z,3.35
2022-09-18T17:55:02.642Z,2.95
2022-09-18T17:57:31.110Z,2.53
2022-09-18T17:59:58.563Z,2.22
2022-09-18T18:02:26.120Z,1.90
2022-09-18T18:04:53.824Z,1.90
2022-09-18T18:07:21.289Z,1.70
2022-09-18T18:09:48.701Z,1.55
2022-09-18T18:12:16.141Z,1.58
2022-09-18T18:14:43.573Z,1.40
2022-09-18T18:17:12.176Z,1.40
2022-09-18T18:19:39.571Z,1.67
2022-09-18T18:22:06.963Z,1.50
2022-09-18T18:24:34.340Z,1.70
2022-09-18T18:27:01.766Z,1.88
2022-09-18T18:29:29.361Z,2.55
2022-09-18T18:31:57.259Z,2.05
2022-09-18T18:34:26.707Z,2.15
2022-09-18T18:36:54.111Z,1.65
2022-09-18T18:39:21.485Z,2.17
2022-09-18T18:41:49.770Z,8.40
2022-09-18T18:44:17.435Z,4.65
2022-09-18T18:46:44.798Z,2.55
2022-09-18T18:49:15.007Z,2.90
2022-09-18T18:51:48.238Z,2.90
2022-09-18T18:54:18.470Z,2.40
2022-09-18T18:56:47.103Z,2.30
2022-09-18T18:59:19.005Z,2.00
2022-09-18T19:01:47.509Z,2.50
2022-09-18T19:04:21.562Z,2.42
2022-09-18T19:06:49.633Z,2.47
2022-09-18T19:09:22.708Z,2.50
2022-09-18T19:11:52.979Z,2.47
2022-09-18T19:14:22.721Z,2.42
2022-09-18T19:16:50.922Z,2.40
2022-09-18T19:19:19.794Z,2.75
2022-09-18T19:21:47.754Z,2.50
2022-09-18T19:24:16.438Z,3.53
2022-09-18T19:26:44.032Z,2.80
2022-09-18T19:29:14.941Z,2.65
2022-09-18T19:31:44.212Z,3.63
2022-09-18T19:34:16.214Z,3.30
2022-09-18T19:36:47.105Z,4.40
2022-09-18T19:39:14.972Z,3.03
2022-09-18T19:41:59.256Z,2.80
2022-09-18T19:44:36.296Z,2.78
2022-09-18T19:47:18.065Z,5.63
2022-09-18T19:49:45.772Z,2.45
2022-09-18T19:52:24.416Z,2.25
2022-09-18T19:54:54.539Z,1.98
2022-09-18T19:57:23.745Z,2.53
2022-09-18T19:59:55.733Z,2.50
2022-09-18T20:02:24.601Z,1.95
2022-09-18T20:04:52.074Z,2.03
2022-09-18T20:07:19.598Z,1.90
2022-09-18T20:09:47.016Z,2.20
2022-09-18T20:12:14.442Z,1.85
2022-09-18T20:14:41.838Z,2.85
2022-09-18T20:17:09.977Z,1.77
2022-09-18T20:19:37.865Z,1.70
2022-09-18T20:22:05.682Z,2.17
2022-09-18T20:24:33.317Z,1.52
2022-09-18T20:27:01.173Z,1.40
2022-09-18T20:29:29.173Z,2.13
2022-09-18T20:31:58.135Z,1.80
2022-09-18T20:34:26.053Z,1.67
2022-09-18T20:36:54.910Z,2.17
2022-09-18T20:39:22.334Z,1.92
2022-09-18T20:41:51.240Z,1.63
2022-09-18T20:44:19.033Z,2.35
2022-09-18T20:46:46.500Z,1.70
2022-09-18T20:49:17.389Z,1.45
2022-09-18T20:51:46.015Z,2.28
2022-09-18T20:54:14.935Z,1.60
2022-09-18T20:56:44.306Z,3.28
2022-09-18T20:59:16.551Z,31.85
2022-09-18T21:01:45.717Z,2.50
2022-09-18T21:04:17.743Z,1.90
2022-09-18T21:06:48.732Z,1.90
2022-09-18T21:09:16.250Z,2.22
2022-09-18T21:11:44.885Z,1.80
2022-09-18T21:14:15.964Z,1.40
2022-09-18T21:16:44.911Z,1.98
2022-09-18T21:19:14.488Z,1.95
2022-09-18T21:21:42.176Z,1.58
2022-09-18T21:24:10.005Z,1.92
2022-09-18T21:26:55.161Z,1.75
2022-09-18T21:29:26.018Z,2.10
2022-09-18T21:31:57.361Z,1.45
2022-09-18T21:34:28.027Z,1.60
2022-09-18T21:36:58.219Z,1.73
2022-09-18T21:39:28.329Z,1.83
2022-09-18T21:41:57.517Z,1.35
2022-09-18T21:44:31.921Z,1.63
2022-09-18T21:47:10.773Z,1.83
2022-09-18T21:49:38.400Z,1.50
2022-09-18T21:52:08.198Z,1.60
2022-09-18T21:54:39.174Z,1.85
2022-09-18T21:57:07.179Z,1.55
2022-09-18T21:59:35.954Z,2.47
2022-09-18T22:02:04.774Z,1.60
2022-09-18T22:04:32.881Z,1.58
2022-09-18T22:07:01.723Z,1.70
2022-09-18T22:09:38.809Z,1.55
2022-09-18T22:12:07.723Z,1.30
2022-09-18T22:14:38.266Z,1.40
2022-09-18T22:17:07.839Z,1.40
2022-09-18T22:19:39.273Z,1.58
2022-09-18T22:22:08.742Z,1.70
2022-09-18T22:24:36.226Z,1.52
2022-09-18T22:27:08.390Z,1.35
2022-09-18T22:29:37.921Z,1.20
2022-09-18T22:32:06.353Z,1.15
2022-09-18T22:34:36.577Z,1.15
2022-09-18T22:37:04.591Z,1.20
2022-09-18T22:39:32.021Z,1.15
2022-09-18T22:41:59.797Z,1.88
2022-09-18T22:44:27.185Z,1.60
2022-09-18T22:46:54.627Z,1.50
2022-09-18T22:49:23.752Z,1.33
2022-09-18T22:51:52.023Z,1.55
2022-09-18T22:54:26.556Z,1.35
2022-09-18T22:56:55.239Z,1.70
2022-09-18T22:59:25.025Z,1.33
2022-09-18T23:02:02.283Z,1.50
2022-09-18T23:04:33.617Z,1.27
2022-09-18T23:07:01.624Z,1.70
2022-09-18T23:09:29.659Z,1.50
2022-09-18T23:11:58.302Z,1.45
2022-09-18T23:14:28.184Z,1.30
2022-09-18T23:16:57.410Z,1.85
2022-09-18T23:19:27.290Z,1.45
2022-09-18T23:21:55.501Z,1.92
2022-09-18T23:24:23.649Z,1.40
2022-09-18T23:26:52.721Z,1.30
2022-09-18T23:29:22.760Z,1.98
2022-09-18T23:31:57.431Z,1.60
2022-09-18T23:34:29.541Z,1.42
2022-09-18T23:36:58.561Z,1.38
2022-09-18T23:39:28.650Z,1.50
2022-09-18T23:41:58.850Z,1.55
2022-09-18T23:44:28.634Z,1.55
2022-09-18T23:46:56.487Z,1.67
2022-09-18T23:49:23.996Z,1.48
2022-09-18T23:51:54.020Z,1.48
2022-09-18T23:54:26.759Z,1.63
2022-09-18T23:56:54.686Z,1.50
2022-09-18T23:59:23.776Z,1.50
